Time;durP1;ratioP1;P1;durP2;ratioP2;P2;SDS_P1;SDS_P2;PMS_P1;PMS_P2;Temp;Humidity;BMP_temperature;BMP_pressure;BME280_temperature;BME280_humidity;BME280_pressure;Samples;Min_cycle;Max_cycle;Signal;HPM_P1;HPM_P2
2021/08/26 00:00:52;;;;;;;10.73;9.37;;;;;;;18.26;65.65;101143.88;5049497;28;20183;-66
2021/08/26 00:06:03;;;;;;;12.47;9.77;;;;;;;18.14;66.23;101143.56;5049958;28;20289;-66
2021/08/26 00:08:30;;;;;;;10.80;9.53;;;;;;;18.11;66.17;101143.72;5049317;28;20567;-66
2021/08/26 00:10:57;;;;;;;10.67;9.57;;;;;;;18.09;66.24;101135.78;5050115;28;20691;-66
2021/08/26 00:13:22;;;;;;;9.97;8.97;;;;;;;18.11;66.14;101135.31;5049048;28;20187;-66
2021/08/26 00:15:50;;;;;;;11.23;9.60;;;;;;;18.03;66.34;101146.09;5049793;28;20569;-66
2021/08/26 00:18:19;;;;;;;10.97;9.73;;;;;;;18.02;66.32;101138.13;5049373;28;20270;-66
2021/08/26 00:20:49;;;;;;;10.77;9.67;;;;;;;18.01;66.27;101147.03;5050279;28;20179;-65
2021/08/26 00:23:15;;;;;;;10.67;9.57;;;;;;;17.85;66.13;101120.13;5048579;28;20183;-65
2021/08/26 00:25:41;;;;;;;10.73;9.63;;;;;;;17.39;66.15;101045.00;5049264;28;20752;-66
2021/08/26 00:28:06;;;;;;;10.87;9.60;;;;;;;17.73;65.96;101089.47;5049830;28;20188;-66
2021/08/26 00:30:32;;;;;;;10.77;9.67;;;;;;;17.98;65.81;101135.50;5049288;28;20219;-65
2021/08/26 00:32:57;;;;;;;10.57;9.47;;;;;;;17.93;65.51;101119.31;5048842;28;20804;-65
2021/08/26 00:35:23;;;;;;;10.77;9.63;;;;;;;17.93;65.76;101136.13;5049162;28;20642;-66
2021/08/26 00:37:48;;;;;;;10.10;9.07;;;;;;;17.93;65.56;101135.38;5049629;28;20187;-66
2021/08/26 00:40:14;;;;;;;11.97;9.33;;;;;;;17.87;65.82;101126.06;5048997;28;20229;-66
2021/08/26 00:42:40;;;;;;;13.63;10.33;;;;;;;17.85;65.41;101128.53;5049325;28;20649;-66
2021/08/26 00:45:06;;;;;;;11.07;9.87;;;;;;;17.73;65.82;101138.66;5048913;28;20230;-65
2021/08/26 00:47:33;;;;;;;10.97;9.33;;;;;;;17.73;65.98;101128.69;5049483;28;20334;-65
2021/08/26 00:49:59;;;;;;;11.37;9.90;;;;;;;17.66;65.84;101124.19;5050089;28;20643;-66
2021/08/26 00:52:25;;;;;;;12.23;9.83;;;;;;;17.65;65.86;101124.69;5052412;28;20188;-65
2021/08/26 00:54:51;;;;;;;11.37;10.27;;;;;;;17.37;65.93;101076.25;5053205;28;20207;-66
2021/08/26 00:57:17;;;;;;;11.20;10.07;;;;;;;17.61;65.95;101118.44;5052424;28;20222;-66
2021/08/26 00:59:42;;;;;;;11.70;10.20;;;;;;;17.57;66.18;101117.81;5033824;28;20208;-66
2021/08/26 01:02:11;;;;;;;11.43;9.27;;;;;;;17.63;65.69;101119.53;5051894;28;20188;-65
2021/08/26 01:04:53;;;;;;;11.10;9.90;;;;;;;17.39;65.64;101084.22;5052936;28;20207;-66
2021/08/26 01:07:32;;;;;;;12.03;10.70;;;;;;;17.59;65.57;101107.69;5052227;28;20656;-66
2021/08/26 01:10:04;;;;;;;11.63;10.20;;;;;;;17.22;65.48;101053.66;5053062;28;20569;-66
2021/08/26 01:12:30;;;;;;;12.40;11.10;;;;;;;17.59;65.26;101099.28;5051571;28;20241;-66
2021/08/26 01:14:57;;;;;;;12.47;11.17;;;;;;;17.56;65.25;101105.81;5052942;28;20713;-67
2021/08/26 01:17:27;;;;;;;12.57;11.23;;;;;;;17.42;65.47;101096.03;5052036;28;20183;-66
2021/08/26 01:19:54;;;;;;;14.20;12.67;;;;;;;17.45;65.24;101096.34;5052339;28;20215;-66
2021/08/26 01:22:21;;;;;;;14.43;13.00;;;;;;;17.43;65.15;101102.41;5052356;28;20678;-66
2021/08/26 01:24:54;;;;;;;15.00;13.50;;;;;;;17.50;64.63;101098.53;5052119;28;20217;-66
2021/08/26 01:27:20;;;;;;;15.27;13.33;;;;;;;17.51;64.69;101100.84;5052393;28;20183;-66
2021/08/26 01:29:48;;;;;;;15.93;14.13;;;;;;;17.49;64.65;101091.38;5052023;28;20640;-66
2021/08/26 01:32:21;;;;;;;15.87;14.17;;;;;;;17.59;64.68;101085.28;5051557;28;20685;-66
2021/08/26 01:34:49;;;;;;;15.07;13.30;;;;;;;17.48;64.30;101084.97;5052442;28;20265;-66
2021/08/26 01:37:22;;;;;;;14.47;13.07;;;;;;;17.63;64.24;101078.25;5052683;28;20286;-66
2021/08/26 01:39:49;;;;;;;16.20;14.20;;;;;;;17.55;64.05;101072.69;5051914;28;20187;-66
2021/08/26 01:42:15;;;;;;;15.20;13.60;;;;;;;17.58;64.43;101090.09;5051840;28;20183;-66
2021/08/26 01:44:41;;;;;;;15.30;13.70;;;;;;;17.61;64.17;101074.38;5051340;28;20284;-66
2021/08/26 01:47:16;;;;;;;16.27;14.03;;;;;;;17.56;64.06;101074.22;5034079;28;20203;-66
2021/08/26 01:49:43;;;;;;;15.43;13.77;;;;;;;17.58;63.75;101069.72;5052440;28;20782;-66
2021/08/26 01:52:09;;;;;;;16.30;14.67;;;;;;;17.62;63.77;101077.94;5051202;28;20255;-67
2021/08/26 01:54:35;;;;;;;15.57;13.97;;;;;;;17.55;63.65;101062.22;5052144;28;20267;-66
2021/08/26 01:57:00;;;;;;;16.20;14.50;;;;;;;17.31;63.97;101044.50;5051611;28;20266;-66
2021/08/26 01:59:27;;;;;;;16.50;14.80;;;;;;;17.45;64.21;101071.13;5051884;28;20182;-66
2021/08/26 02:01:52;;;;;;;18.07;15.20;;;;;;;17.17;63.94;101036.72;5050556;28;20181;-66
2021/08/26 02:04:18;;;;;;;16.03;14.20;;;;;;;17.19;64.39;101046.22;5051855;28;20191;-66
2021/08/26 02:06:43;;;;;;;18.17;15.63;;;;;;;17.34;64.05;101080.75;5051511;28;20254;-66
2021/08/26 02:09:09;;;;;;;18.03;14.43;;;;;;;17.35;64.15;101079.50;5051791;28;20203;-66
2021/08/26 02:11:34;;;;;;;16.37;14.67;;;;;;;17.19;63.78;101057.41;5050688;28;20191;-66
2021/08/26 02:14:00;;;;;;;16.60;14.90;;;;;;;17.08;63.54;101036.72;5051453;28;20184;-66
2021/08/26 02:16:25;;;;;;;16.10;14.50;;;;;;;17.43;63.58;101085.59;5051353;28;20186;-66
2021/08/26 02:18:51;;;;;;;16.47;14.87;;;;;;;17.41;63.60;101090.91;5051165;28;20587;-66
2021/08/26 02:21:16;;;;;;;15.57;13.97;;;;;;;17.35;63.66;101093.53;5050938;28;20650;-67
2021/08/26 02:23:42;;;;;;;15.17;13.57;;;;;;;17.23;63.37;101063.66;5051202;28;20187;-65
2021/08/26 02:26:07;;;;;;;15.63;14.03;;;;;;;17.40;63.30;101071.75;5051637;28;20700;-66
2021/08/26 02:28:33;;;;;;;15.77;14.03;;;;;;;17.34;63.29;101074.38;5050549;28;20618;-65
2021/08/26 02:30:59;;;;;;;15.17;13.60;;;;;;;17.32;63.58;101058.03;5051078;28;20181;-66
2021/08/26 02:33:24;;;;;;;14.57;12.90;;;;;;;17.32;62.88;101063.63;5050549;28;20237;-66
2021/08/26 02:35:50;;;;;;;14.70;13.10;;;;;;;17.45;63.14;101085.16;5051433;28;20234;-66
2021/08/26 02:38:15;;;;;;;14.57;13.07;;;;;;;17.42;63.04;101072.84;5050702;28;20213;-66
2021/08/26 02:40:41;;;;;;;13.93;12.53;;;;;;;17.40;63.58;101072.53;5051343;28;20181;-66
2021/08/26 02:43:06;;;;;;;12.73;11.47;;;;;;;17.29;63.17;101050.56;5050006;28;20191;-66
2021/08/26 02:45:32;;;;;;;12.80;11.50;;;;;;;17.42;63.65;101066.47;5050844;28;20685;-67
2021/08/26 02:47:57;;;;;;;13.33;11.40;;;;;;;17.45;63.58;101079.53;5050607;28;20270;-66
2021/08/26 02:50:23;;;;;;;12.97;11.37;;;;;;;17.52;63.48;101069.56;5050522;28;20189;-66
2021/08/26 02:52:48;;;;;;;12.07;10.77;;;;;;;17.48;63.39;101059.75;5050640;28;20184;-66
2021/08/26 02:55:14;;;;;;;13.90;10.57;;;;;;;17.23;63.49;101024.44;5050286;28;20247;-66
2021/08/26 02:57:39;;;;;;;11.37;10.17;;;;;;;17.49;63.83;101069.72;5051408;28;20182;-66
2021/08/26 03:00:06;;;;;;;10.97;9.77;;;;;;;17.53;64.01;101070.34;5050120;28;20666;-66
2021/08/26 03:02:32;;;;;;;10.83;9.63;;;;;;;17.54;64.00;101074.69;5032122;28;20184;-66
2021/08/26 03:04:57;;;;;;;11.97;10.13;;;;;;;17.57;64.06;101079.38;5050266;28;20253;-66
2021/08/26 03:07:23;;;;;;;10.87;9.60;;;;;;;17.62;64.26;101075.16;5050569;28;20188;-65
2021/08/26 03:09:48;;;;;;;10.03;9.03;;;;;;;17.66;63.90;101082.13;5050076;28;20187;-66
2021/08/26 03:12:14;;;;;;;9.73;8.70;;;;;;;17.60;64.31;101069.25;5049658;28;20190;-66
2021/08/26 03:14:39;;;;;;;10.60;9.10;;;;;;;17.68;64.38;101074.06;5049953;28;20654;-66
2021/08/26 03:17:05;;;;;;;10.20;9.20;;;;;;;17.72;64.37;101079.50;5050566;28;20185;-65
2021/08/26 03:19:30;;;;;;;9.73;8.73;;;;;;;17.66;64.89;101084.19;5049797;28;20674;-66
2021/08/26 03:21:55;;;;;;;9.20;7.87;;;;;;;17.73;64.94;101073.44;5049534;28;20663;-66
2021/08/26 03:24:21;;;;;;;9.47;7.97;;;;;;;17.70;64.71;101053.97;5050426;28;20195;-66
2021/08/26 03:26:46;;;;;;;8.83;7.93;;;;;;;17.02;64.80;100946.97;5049915;28;20172;-65
2021/08/26 03:29:12;;;;;;;9.37;8.27;;;;;;;17.58;64.81;101031.25;5050410;28;20211;-66
2021/08/26 03:31:37;;;;;;;8.40;7.50;;;;;;;17.51;64.74;101011.19;5049146;28;20674;-66
2021/08/26 03:34:03;;;;;;;9.13;8.17;;;;;;;17.87;65.09;101072.00;5050385;28;20240;-66
2021/08/26 03:36:28;;;;;;;10.13;7.83;;;;;;;17.88;65.03;101065.91;5049762;28;20192;-65
2021/08/26 03:38:55;;;;;;;9.27;7.77;;;;;;;17.85;65.01;101052.06;5050157;28;20239;-66
2021/08/26 03:41:21;;;;;;;10.43;8.37;;;;;;;17.98;64.53;101069.47;5049468;28;20188;-66
2021/08/26 03:43:49;;;;;;;9.17;7.60;;;;;;;17.59;64.63;101015.22;5050032;28;20658;-66
2021/08/26 03:46:15;;;;;;;9.10;8.17;;;;;;;18.08;64.26;101085.78;5049531;28;20199;-66
2021/08/26 03:48:40;;;;;;;8.67;7.77;;;;;;;17.84;64.28;101042.88;5050358;28;20686;-66
2021/08/26 03:51:05;;;;;;;9.67;8.67;;;;;;;18.02;64.15;101053.25;5048932;28;20204;-66
2021/08/26 03:53:31;;;;;;;10.13;7.60;;;;;;;18.26;64.16;101087.75;5049481;28;20189;-66
2021/08/26 03:55:56;;;;;;;8.60;7.70;;;;;;;18.17;64.18;101068.16;5050299;28;20241;-66
2021/08/26 03:58:22;;;;;;;8.50;7.60;;;;;;;18.09;64.03;101046.03;5049580;28;20180;-66
2021/08/26 04:00:47;;;;;;;8.47;7.40;;;;;;;18.27;64.21;101076.81;5049837;28;20666;-66
2021/08/26 04:03:13;;;;;;;10.27;7.60;;;;;;;18.26;64.51;101079.34;5048795;28;20198;-66
2021/08/26 04:05:38;;;;;;;9.57;8.00;;;;;;;18.35;64.33;101079.31;5050189;28;20239;-66
2021/08/26 04:08:05;;;;;;;9.27;7.63;;;;;;;18.05;64.45;101039.06;5049515;28;20188;-66
2021/08/26 04:10:31;;;;;;;9.67;8.27;;;;;;;18.33;64.88;101079.81;5032064;28;20178;-66
2021/08/26 04:12:57;;;;;;;9.03;8.03;;;;;;;18.37;64.78;101076.81;5048793;28;20563;-65
2021/08/26 04:15:22;;;;;;;9.10;8.20;;;;;;;18.43;64.79;101083.34;5049639;28;20186;-65
2021/08/26 04:17:48;;;;;;;10.30;7.80;;;;;;;18.42;64.74;101074.13;5049593;28;20265;-66
2021/08/26 04:20:13;;;;;;;9.67;8.10;;;;;;;18.50;64.45;101072.53;5049736;28;20183;-66
2021/08/26 04:22:39;;;;;;;10.47;8.50;;;;;;;18.62;64.36;101073.59;5048852;28;20188;-66
2021/08/26 04:25:05;;;;;;;10.87;7.87;;;;;;;18.68;64.07;101064.00;5052057;28;20228;-66
2021/08/26 04:27:31;;;;;;;10.33;8.13;;;;;;;18.72;63.76;101058.25;5053688;28;20192;-66
2021/08/26 04:29:56;;;;;;;9.10;8.20;;;;;;;18.74;63.56;101058.53;5052985;28;20250;-66
2021/08/26 04:32:22;;;;;;;10.67;8.23;;;;;;;18.71;63.60;101048.25;5052773;28;20180;-66
2021/08/26 04:34:47;;;;;;;9.53;7.80;;;;;;;18.78;63.70;101059.13;5053283;28;20626;-65
2021/08/26 04:37:13;;;;;;;9.93;8.17;;;;;;;18.78;63.47;101059.13;5052170;28;20274;-67
2021/08/26 04:39:38;;;;;;;8.53;7.63;;;;;;;18.41;63.54;100999.63;5052872;28;20662;-67
2021/08/26 04:42:04;;;;;;;10.23;8.23;;;;;;;18.54;63.52;101028.25;5052809;28;20237;-66
2021/08/26 04:44:29;;;;;;;9.00;7.60;;;;;;;18.80;63.16;101060.19;5052314;28;20235;-67
2021/08/26 04:46:55;;;;;;;10.57;8.10;;;;;;;18.78;63.17;101068.31;5044123;28;20196;-68
2021/08/26 04:49:20;;;;;;;9.20;8.30;;;;;;;18.94;62.67;101076.31;5051950;28;20631;-68
2021/08/26 04:51:46;;;;;;;9.37;8.37;;;;;;;18.99;62.67;101074.91;5051479;28;20227;-67
2021/08/26 04:54:12;;;;;;;9.90;8.63;;;;;;;19.02;62.72;101080.31;5034229;28;20200;-68
2021/08/26 04:56:38;;;;;;;10.10;8.23;;;;;;;18.81;61.67;101028.06;5052059;28;20175;-67
2021/08/26 04:59:04;;;;;;;11.30;8.40;;;;;;;18.99;61.16;101058.03;5033254;28;20173;-67
2021/08/26 05:01:29;;;;;;;10.53;8.03;;;;;;;19.15;60.58;101080.88;5034262;28;20192;-67
2021/08/26 05:03:55;;;;;;;9.43;8.43;;;;;;;18.69;60.91;101019.88;5045426;28;20269;-68
2021/08/26 05:06:20;;;;;;;9.70;8.30;;;;;;;19.24;60.65;101078.00;5049528;28;20214;-67
2021/08/26 05:08:46;;;;;;;9.40;8.40;;;;;;;19.08;60.45;101035.50;5051551;28;20190;-68
2021/08/26 05:11:21;;;;;;;9.93;8.40;;;;;;;19.17;60.30;101069.13;5049995;28;20194;-67
2021/08/26 05:13:47;;;;;;;11.40;8.73;;;;;;;18.97;60.04;101024.81;5040046;28;20278;-67
2021/08/26 05:16:12;;;;;;;11.83;9.23;;;;;;;19.24;60.09;101071.59;5048843;28;20278;-67
2021/08/26 05:18:39;;;;;;;12.53;9.00;;;;;;;19.37;59.36;101069.28;5049388;28;20184;-67
2021/08/26 05:21:04;;;;;;;10.47;9.07;;;;;;;19.39;58.97;101070.38;5049972;28;20268;-67
2021/08/26 05:23:30;;;;;;;10.30;9.20;;;;;;;19.02;58.40;101000.88;5050965;28;20669;-67
2021/08/26 05:25:55;;;;;;;11.30;8.50;;;;;;;19.37;57.98;101047.59;5049388;28;20748;-66
2021/08/26 05:28:21;;;;;;;10.10;8.97;;;;;;;19.58;57.68;101057.69;5049765;28;20202;-67
2021/08/26 05:30:47;;;;;;;10.20;9.10;;;;;;;19.59;58.12;101058.50;5047812;28;20192;-66
2021/08/26 05:33:12;;;;;;;11.37;9.03;;;;;;;19.73;57.97;101052.88;5028929;28;20239;-67
2021/08/26 05:35:37;;;;;;;12.70;9.10;;;;;;;19.79;57.40;101050.91;5046909;28;20179;-67
2021/08/26 05:38:03;;;;;;;10.33;8.83;;;;;;;19.88;56.86;101038.78;5048429;28;20631;-66
2021/08/26 05:40:29;;;;;;;10.07;8.63;;;;;;;19.82;57.05;101035.91;5046859;28;20301;-67
2021/08/26 05:42:54;;;;;;;10.00;9.00;;;;;;;19.93;56.98;101038.88;5047293;28;20220;-68
2021/08/26 05:45:20;;;;;;;11.20;8.83;;;;;;;20.05;56.61;101031.41;5049895;28;20713;-61
2021/08/26 05:47:45;;;;;;;9.63;8.43;;;;;;;20.18;56.06;101029.06;5052143;28;20194;-61
2021/08/26 05:50:11;;;;;;;10.67;9.03;;;;;;;20.30;55.33;101027.97;5051916;28;20658;-61
2021/08/26 05:52:36;;;;;;;9.90;8.60;;;;;;;20.51;54.93;101046.44;5051826;28;20198;-61
2021/08/26 05:55:02;;;;;;;9.93;8.30;;;;;;;20.43;54.72;101012.31;5051459;28;20186;-61
2021/08/26 05:57:27;;;;;;;9.13;8.20;;;;;;;20.53;55.14;101053.13;5051127;28;20800;-61
2021/08/26 05:59:53;;;;;;;9.47;7.97;;;;;;;20.32;54.65;100998.06;5051940;28;20195;-60
2021/08/26 06:02:18;;;;;;;10.03;8.70;;;;;;;20.64;54.61;101042.06;5051695;28;20180;-62
2021/08/26 06:04:44;;;;;;;9.67;8.67;;;;;;;20.97;53.84;101064.25;5051909;28;20211;-61
2021/08/26 06:07:09;;;;;;;10.53;8.20;;;;;;;21.00;53.73;101055.63;5051341;28;20180;-61
2021/08/26 06:09:35;;;;;;;8.23;7.43;;;;;;;21.26;52.65;101056.44;5050341;28;20394;-61
2021/08/26 06:12:00;;;;;;;8.73;7.67;;;;;;;21.12;52.63;101031.13;5050241;28;20290;-61
2021/08/26 06:14:26;;;;;;;9.20;7.77;;;;;;;21.58;51.97;101062.91;5032763;28;20683;-61
2021/08/26 06:16:51;;;;;;;10.07;7.77;;;;;;;21.45;51.00;101048.44;5051729;28;20191;-61
2021/08/26 06:19:17;;;;;;;10.20;7.60;;;;;;;21.49;50.48;101066.66;5051285;28;20615;-61
2021/08/26 06:21:42;;;;;;;9.00;7.80;;;;;;;21.53;50.41;101060.81;5051476;28;20188;-61
2021/08/26 06:24:08;;;;;;;11.47;7.00;;;;;;;21.50;50.10;101059.00;5051589;28;20210;-61
2021/08/26 06:26:34;;;;;;;7.87;6.73;;;;;;;21.56;49.65;101054.19;5051494;28;20482;-61
2021/08/26 06:29:00;;;;;;;9.10;7.57;;;;;;;21.57;49.84;101050.88;5051287;28;20545;-61
2021/08/26 06:31:26;;;;;;;8.27;7.27;;;;;;;21.54;49.76;101034.94;5051153;28;20279;-61
2021/08/26 06:33:51;;;;;;;10.50;7.20;;;;;;;21.53;49.53;101039.03;5050984;28;20176;-61
2021/08/26 06:36:17;;;;;;;9.13;7.20;;;;;;;21.16;49.92;100989.44;5033423;28;20278;-61
2021/08/26 06:38:42;;;;;;;8.60;7.20;;;;;;;21.46;49.65;101035.88;5050898;28;20181;-61
2021/08/26 06:41:09;;;;;;;8.80;7.23;;;;;;;21.60;49.55;101044.22;5051064;28;20189;-61
2021/08/26 06:43:35;;;;;;;7.63;6.80;;;;;;;21.28;49.10;100983.41;5050522;28;20231;-61
2021/08/26 06:46:00;;;;;;;10.80;7.03;;;;;;;21.67;49.36;101038.16;5051064;28;20192;-61
2021/08/26 06:48:25;;;;;;;7.20;6.50;;;;;;;21.69;49.01;101049.72;5050130;28;20579;-61
2021/08/26 06:50:51;;;;;;;7.87;6.70;;;;;;;21.72;48.83;101043.09;5050665;28;20246;-61
2021/08/26 06:53:16;;;;;;;7.90;7.10;;;;;;;21.79;48.95;101053.91;5032333;28;20187;-61
2021/08/26 06:55:42;;;;;;;11.70;7.60;;;;;;;21.55;48.14;101004.69;5050958;28;20172;-62
2021/08/26 06:58:07;;;;;;;8.07;6.93;;;;;;;21.79;48.69;101059.56;5050676;28;20188;-60
2021/08/26 07:00:33;;;;;;;8.43;7.20;;;;;;;21.49;48.62;101013.09;5050922;28;20552;-61
2021/08/26 07:02:58;;;;;;;7.83;7.03;;;;;;;21.69;48.92;101021.50;5050846;28;20703;-60
2021/08/26 07:05:24;;;;;;;9.70;7.03;;;;;;;22.08;48.96;101061.34;5050454;28;20215;-61
2021/08/26 07:07:49;;;;;;;9.27;7.07;;;;;;;22.08;49.07;101064.16;5050582;28;20275;-61
2021/08/26 07:10:16;;;;;;;8.87;7.33;;;;;;;21.99;48.16;101053.84;5050416;28;20172;-61
2021/08/26 07:12:41;;;;;;;8.13;6.83;;;;;;;22.07;48.38;101037.22;5050425;28;20658;-61
2021/08/26 07:15:07;;;;;;;8.73;6.70;;;;;;;22.27;47.00;101031.47;5032741;28;20181;-61
2021/08/26 07:17:33;;;;;;;8.30;6.90;;;;;;;22.29;47.03;101041.00;5050924;28;20646;-60
2021/08/26 07:19:58;;;;;;;8.47;7.20;;;;;;;22.45;47.85;101051.66;5050684;28;20189;-61
2021/08/26 07:22:24;;;;;;;7.70;6.90;;;;;;;22.48;47.54;101059.13;5050230;28;20427;-61
2021/08/26 07:24:50;;;;;;;8.93;7.00;;;;;;;22.67;47.04;101067.97;5050043;28;20208;-60
2021/08/26 07:27:15;;;;;;;6.93;6.23;;;;;;;22.53;46.25;101016.03;5050276;28;20273;-61
2021/08/26 07:29:41;;;;;;;6.80;5.93;;;;;;;23.03;45.75;101048.09;5050099;28;20592;-61
2021/08/26 07:32:06;;;;;;;6.80;6.00;;;;;;;23.07;44.82;101002.59;5046734;28;20184;-61
2021/08/26 07:34:32;;;;;;;9.27;5.97;;;;;;;23.60;44.83;101037.22;5050201;28;20184;-62
2021/08/26 07:36:57;;;;;;;8.30;6.43;;;;;;;23.63;44.01;101032.59;5050021;28;20653;-61
2021/08/26 07:39:23;;;;;;;7.77;6.30;;;;;;;23.82;43.08;101027.97;5040531;28;20188;-61
2021/08/26 07:41:48;;;;;;;8.37;6.63;;;;;;;23.75;44.06;101000.94;5050011;28;20725;-61
2021/08/26 07:44:14;;;;;;;7.67;6.00;;;;;;;23.89;43.54;101036.75;5049594;28;20310;-62
2021/08/26 07:46:40;;;;;;;7.07;6.23;;;;;;;24.00;42.37;101033.16;5038264;28;20651;-61
2021/08/26 07:49:06;;;;;;;6.07;5.47;;;;;;;23.79;42.28;100995.81;5049199;28;20554;-60
2021/08/26 07:51:32;;;;;;;6.80;5.47;;;;;;;23.89;40.58;101019.03;5049347;28;20194;-60
2021/08/26 07:53:59;;;;;;;8.53;5.07;;;;;;;23.30;41.76;100965.44;5049165;28;20184;-61
2021/08/26 07:56:24;;;;;;;6.53;5.20;;;;;;;22.97;42.48;100962.50;5048943;28;20180;-61
2021/08/26 07:58:50;;;;;;;5.97;5.27;;;;;;;23.51;43.17;101019.72;5050839;28;20191;-61
2021/08/26 08:01:15;;;;;;;5.40;4.90;;;;;;;23.90;42.52;101029.06;5056110;28;20190;-61
2021/08/26 08:03:41;;;;;;;6.80;5.57;;;;;;;24.16;40.97;101024.66;5056213;28;20184;-61
2021/08/26 08:06:06;;;;;;;6.27;5.07;;;;;;;24.12;41.27;101029.81;5055966;28;20203;-61
2021/08/26 08:08:32;;;;;;;7.33;5.03;;;;;;;24.31;41.80;101027.22;5056729;28;20183;-61
2021/08/26 08:10:58;;;;;;;9.30;5.30;;;;;;;24.52;40.57;101015.03;5056378;28;20653;-60
2021/08/26 08:13:24;;;;;;;5.50;4.90;;;;;;;24.74;39.65;101015.03;5048089;28;20187;-62
2021/08/26 08:15:50;;;;;;;6.23;4.77;;;;;;;24.07;39.49;101004.31;5056119;28;20229;-60
2021/08/26 08:18:16;;;;;;;7.17;5.43;;;;;;;23.96;40.71;101021.31;5056124;28;20188;-61
2021/08/26 08:20:41;;;;;;;6.60;4.73;;;;;;;24.09;41.75;101030.84;5051287;28;20263;-61
2021/08/26 08:23:08;;;;;;;6.03;4.33;;;;;;;23.77;39.29;101001.22;5055713;28;20700;-61
2021/08/26 08:25:33;;;;;;;5.73;4.43;;;;;;;23.90;40.48;101009.25;5056038;28;20204;-61
2021/08/26 08:27:59;;;;;;;5.67;4.67;;;;;;;23.94;41.14;100996.34;5056297;28;20211;-61
2021/08/26 08:30:27;;;;;;;5.60;4.87;;;;;;;24.04;41.27;101013.84;5038201;28;20188;-61
2021/08/26 08:32:58;;;;;;;7.10;4.83;;;;;;;24.13;41.00;101005.09;5038708;28;20188;-61
2021/08/26 08:35:23;;;;;;;7.67;5.03;;;;;;;24.22;40.14;101010.50;5056149;28;20184;-61
2021/08/26 08:37:50;;;;;;;6.83;5.10;;;;;;;24.33;40.58;100985.75;5052232;28;20180;-61
2021/08/26 08:40:16;;;;;;;6.80;4.87;;;;;;;24.60;39.75;101009.63;5056623;28;20183;-60
2021/08/26 08:42:46;;;;;;;6.67;4.33;;;;;;;24.34;39.30;101003.50;5056280;28;20187;-61
2021/08/26 08:45:12;;;;;;;5.23;4.70;;;;;;;24.33;39.69;101013.28;5056154;28;20240;-60
2021/08/26 08:47:39;;;;;;;6.13;4.40;;;;;;;24.35;39.51;101005.81;5056659;28;20611;-61
2021/08/26 08:50:06;;;;;;;5.97;4.67;;;;;;;24.53;39.73;101013.00;5056500;28;20188;-60
2021/08/26 08:52:38;;;;;;;5.57;4.70;;;;;;;24.73;39.27;101018.38;5056407;28;20184;-61
2021/08/26 08:55:10;;;;;;;5.30;4.23;;;;;;;24.57;38.62;101011.44;5052763;28;20192;-61
2021/08/26 08:57:39;;;;;;;6.30;4.47;;;;;;;24.31;38.42;100954.34;5055888;28;20219;-61
2021/08/26 09:00:13;;;;;;;8.00;6.33;;;;;;;24.59;38.15;101008.09;5056334;28;20321;-61
2021/08/26 09:02:39;;;;;;;6.97;5.40;;;;;;;24.72;39.74;101005.50;5056255;28;20269;-61
2021/08/26 09:05:05;;;;;;;6.00;5.40;;;;;;;24.97;39.64;101001.53;5055751;28;20219;-61
2021/08/26 09:07:33;;;;;;;6.17;5.07;;;;;;;25.04;39.09;100981.91;5056363;28;20765;-60
2021/08/26 09:09:59;;;;;;;5.83;4.70;;;;;;;25.17;37.11;101010.44;5055866;28;20172;-62
2021/08/26 09:12:40;;;;;;;7.10;6.40;;;;;;;24.88;37.42;101005.41;5052059;28;20181;-61
2021/08/26 09:15:10;;;;;;;7.80;6.03;;;;;;;24.93;37.86;101004.63;5052117;28;20176;-61
2021/08/26 09:17:35;;;;;;;8.10;7.30;;;;;;;24.77;37.40;100996.97;5052339;28;20233;-61
2021/08/26 09:20:06;;;;;;;6.30;3.63;;;;;;;24.69;36.13;100989.53;5052437;28;20718;-61
2021/08/26 09:22:32;;;;;;;6.03;2.90;;;;;;;24.21;36.23;100879.44;5052329;28;20657;-61
2021/08/26 09:24:58;;;;;;;3.47;2.70;;;;;;;25.09;35.46;100992.44;5052308;28;20212;-62
2021/08/26 09:27:44;;;;;;;2.77;2.00;;;;;;;25.24;33.92;100986.41;5052055;28;20224;-61
2021/08/26 09:30:16;;;;;;;4.43;2.20;;;;;;;25.27;33.98;100971.19;5052089;28;20179;-62
2021/08/26 09:32:45;;;;;;;3.33;2.40;;;;;;;25.13;33.71;100972.31;5033927;28;20545;-60
2021/08/26 09:35:10;;;;;;;4.30;2.87;;;;;;;25.31;34.18;100989.50;5051146;28;20180;-61
2021/08/26 09:38:05;;;;;;;4.90;3.70;;;;;;;25.40;34.62;100982.72;5052213;28;20184;-61
2021/08/26 09:40:46;;;;;;;4.73;4.07;;;;;;;25.38;34.45;100974.75;5031484;28;20202;-62
2021/08/26 09:43:12;;;;;;;5.77;3.90;;;;;;;25.46;35.60;100977.78;5049568;28;20184;-61
2021/08/26 09:45:47;;;;;;;5.77;3.27;;;;;;;25.55;35.33;100978.25;5051973;28;20207;-61
2021/08/26 09:48:15;;;;;;;4.07;3.40;;;;;;;25.56;35.66;100967.66;5052269;28;20183;-61
2021/08/26 09:50:51;;;;;;;5.37;3.20;;;;;;;25.81;35.47;100970.03;5047606;28;20191;-62
2021/08/26 09:53:19;;;;;;;4.77;3.43;;;;;;;25.90;35.50;100966.06;5045505;28;20186;-61
2021/08/26 09:55:50;;;;;;;4.23;3.43;;;;;;;26.02;34.83;100959.78;5049244;28;20184;-62
2021/08/26 09:58:19;;;;;;;4.00;3.23;;;;;;;26.10;34.39;100959.97;5052280;28;20188;-62
2021/08/26 10:00:45;;;;;;;3.97;2.93;;;;;;;26.09;34.34;100955.56;5052662;28;21608;-61
2021/08/26 10:03:13;;;;;;;3.07;2.60;;;;;;;26.20;33.97;100953.38;5052312;28;20208;-62
2021/08/26 10:05:43;;;;;;;4.03;2.60;;;;;;;26.18;33.95;100941.03;5052481;28;20204;-61
2021/08/26 10:08:10;;;;;;;3.37;2.40;;;;;;;26.32;34.45;100946.31;5047911;28;20208;-61
2021/08/26 10:10:41;;;;;;;4.00;2.47;;;;;;;26.41;34.08;100940.25;5052398;28;20176;-62
2021/08/26 10:13:07;;;;;;;2.70;2.33;;;;;;;26.38;33.94;100929.19;5033838;28;20670;-61
2021/08/26 10:15:33;;;;;;;4.83;2.60;;;;;;;26.30;34.94;100926.16;5051690;28;20180;-62
2021/08/26 10:17:59;;;;;;;3.10;2.50;;;;;;;26.53;34.71;100938.03;5052065;28;20638;-62
2021/08/26 10:20:25;;;;;;;3.80;2.47;;;;;;;26.77;34.82;100935.19;5050678;28;20187;-62
2021/08/26 10:22:52;;;;;;;3.10;2.30;;;;;;;27.10;34.63;100924.09;5050636;28;20264;-61
2021/08/26 10:25:17;;;;;;;4.60;2.30;;;;;;;26.84;33.43;100877.69;5051803;28;20257;-62
2021/08/26 10:27:45;;;;;;;3.43;2.33;;;;;;;27.36;33.36;100929.94;5051049;28;20192;-62
2021/08/26 10:30:30;;;;;;;3.77;3.03;;;;;;;27.48;34.04;100934.13;5050711;28;20184;-62
2021/08/26 10:33:14;;;;;;;3.33;2.70;;;;;;;27.63;33.34;100914.47;5051086;28;20184;-62
2021/08/26 10:35:55;;;;;;;3.85;2.90;;;;;;;27.73;33.33;100912.00;5049407;28;20172;-62
2021/08/26 10:38:25;;;;;;;4.20;3.37;;;;;;;27.54;33.82;100874.28;5049310;28;20676;-61
2021/08/26 10:40:51;;;;;;;4.50;3.10;;;;;;;27.69;33.34;100885.91;5050805;28;20267;-61
2021/08/26 10:43:36;;;;;;;4.33;3.67;;;;;;;27.55;33.79;100915.66;5050627;28;20192;-62
2021/08/26 10:46:08;;;;;;;4.22;3.58;;;;;;;27.46;34.52;100910.38;5050950;28;20208;-61
2021/08/26 10:48:34;;;;;;;4.43;3.90;;;;;;;27.70;34.14;100905.31;5050812;28;20262;-61
2021/08/26 10:51:17;;;;;;;5.33;4.00;;;;;;;27.97;33.37;100895.50;5050888;28;20662;-61
2021/08/26 10:53:49;;;;;;;5.73;4.40;;;;;;;27.75;34.32;100869.50;5039338;28;20183;-62
2021/08/26 10:56:33;;;;;;;6.27;4.53;;;;;;;28.09;33.03;100896.81;5043493;28;20218;-61
2021/08/26 10:59:01;;;;;;;5.20;3.90;;;;;;;27.86;33.08;100907.13;5032875;28;20275;-62
2021/08/26 11:01:35;;;;;;;5.50;4.17;;;;;;;27.78;33.46;100899.72;5049642;28;20237;-61
2021/08/26 11:04:06;;;;;;;5.95;3.95;;;;;;;27.79;33.47;100899.19;5050245;28;20180;-61
2021/08/26 11:06:37;;;;;;;5.20;4.03;;;;;;;27.93;33.42;100895.06;5049878;28;20244;-61
2021/08/26 11:09:24;;;;;;;5.13;4.22;;;;;;;28.28;33.12;100886.09;5031375;28;20685;-61
2021/08/26 11:11:53;;;;;;;5.47;4.60;;;;;;;28.01;32.74;100858.13;5048939;28;20180;-61
2021/08/26 11:14:18;;;;;;;6.63;4.97;;;;;;;28.33;34.69;100892.97;5049041;28;20234;-60
2021/08/26 11:16:49;;;;;;;6.90;4.65;;;;;;;28.49;33.53;100900.44;5049810;28;20180;-61
2021/08/26 11:19:14;;;;;;;5.82;4.30;;;;;;;28.67;32.65;100894.59;5050199;28;20188;-62
2021/08/26 11:24:12;;;;;;;6.30;5.57;;;;;;;29.06;31.53;100888.81;5049224;28;20202;-61